createdAt,value
2023-02-18T00:01:56.502Z,17.90
2023-02-18T00:04:24.753Z,16.95
2023-02-18T00:06:53.364Z,19.25
2023-02-18T00:09:21.482Z,11.02
2023-02-18T00:11:50.024Z,18.65
2023-02-18T00:14:19.025Z,10.43
2023-02-18T00:16:47.310Z,15.52
2023-02-18T00:19:19.846Z,10.90
2023-02-18T00:21:48.723Z,14.43
2023-02-18T00:24:17.331Z,10.57
2023-02-18T00:26:46.315Z,13.80
2023-02-18T00:29:14.920Z,9.57
2023-02-18T00:31:44.190Z,12.70
2023-02-18T00:34:14.489Z,10.98
2023-02-18T00:36:43.391Z,9.60
2023-02-18T00:39:13.511Z,8.63
2023-02-18T00:41:42.880Z,10.43
2023-02-18T00:44:13.052Z,11.48
2023-02-18T00:46:41.798Z,13.90
2023-02-18T00:49:10.740Z,8.15
2023-02-18T00:51:39.240Z,8.98
2023-02-18T00:54:07.620Z,10.55
2023-02-18T00:56:38.080Z,6.10
2023-02-18T00:59:06.640Z,7.53
2023-02-18T01:01:36.064Z,8.55
2023-02-18T01:04:04.606Z,7.55
2023-02-18T01:06:33.799Z,11.02
2023-02-18T01:09:05.649Z,12.77
2023-02-18T01:11:34.177Z,7.70
2023-02-18T01:14:02.373Z,10.95
2023-02-18T01:16:31.154Z,8.52
2023-02-18T01:18:59.788Z,7.68
2023-02-18T01:21:28.916Z,7.78
2023-02-18T01:23:58.622Z,9.05
2023-02-18T01:26:26.791Z,8.98
2023-02-18T01:28:54.943Z,10.88
2023-02-18T01:31:23.275Z,9.32
2023-02-18T01:33:52.483Z,9.60
2023-02-18T01:36:22.216Z,9.00
2023-02-18T01:38:50.704Z,11.02
2023-02-18T01:41:18.820Z,7.40
2023-02-18T01:43:49.785Z,13.73
2023-02-18T01:46:22.413Z,5.93
2023-02-18T01:49:00.952Z,9.30
2023-02-18T01:51:43.867Z,10.45
2023-02-18T01:54:29.884Z,6.88
2023-02-18T01:57:06.298Z,7.53
2023-02-18T02:00:13.760Z,6.75
2023-02-18T02:02:51.841Z,10.77
2023-02-18T02:05:22.172Z,7.05
2023-02-18T02:07:54.619Z,12.15
2023-02-18T02:10:23.152Z,7.47
2023-02-18T02:13:30.017Z,12.80
2023-02-18T02:16:12.998Z,11.75
2023-02-18T02:19:12.704Z,11.65
2023-02-18T02:23:01.634Z,12.40
2023-02-18T02:25:39.489Z,12.93
2023-02-18T02:28:13.172Z,12.40
2023-02-18T02:30:58.693Z,14.55
2023-02-18T02:33:52.644Z,11.70
2023-02-18T02:36:45.335Z,10.48
2023-02-18T02:39:54.231Z,10.27
2023-02-18T02:42:53.159Z,11.85
2023-02-18T02:45:48.372Z,11.25
2023-02-18T02:48:45.895Z,8.38
2023-02-18T02:51:20.073Z,10.82
2023-02-18T02:53:48.776Z,21.10
2023-02-18T02:56:23.972Z,12.20
2023-02-18T02:59:08.110Z,18.92
2023-02-18T03:01:55.844Z,13.77
2023-02-18T03:04:39.629Z,12.68
2023-02-18T03:08:04.663Z,18.73
2023-02-18T03:11:04.792Z,13.52
2023-02-18T03:13:53.056Z,14.73
2023-02-18T03:17:04.783Z,15.43
2023-02-18T03:19:42.817Z,16.27
2023-02-18T03:22:30.498Z,13.32
2023-02-18T03:25:02.925Z,13.02
2023-02-18T03:27:53.927Z,11.27
2023-02-18T03:30:37.137Z,13.20
2023-02-18T03:33:09.924Z,20.80
2023-02-18T03:35:39.625Z,16.58
2023-02-18T03:38:41.069Z,14.63
2023-02-18T03:41:09.527Z,12.68
2023-02-18T03:43:49.126Z,14.10
2023-02-18T03:46:17.406Z,8.73
2023-02-18T03:48:46.110Z,12.18
2023-02-18T03:51:15.790Z,8.25
2023-02-18T03:53:44.276Z,12.60
2023-02-18T03:56:15.801Z,11.52
2023-02-18T03:58:44.285Z,12.80
2023-02-18T04:01:12.626Z,9.30
2023-02-18T04:03:40.931Z,7.60
2023-02-18T04:06:09.877Z,8.18
2023-02-18T04:08:38.282Z,11.02
2023-02-18T04:11:06.569Z,13.05
2023-02-18T04:13:34.729Z,10.80
2023-02-18T04:16:02.748Z,12.73
2023-02-18T04:18:30.707Z,11.70
2023-02-18T04:20:59.296Z,9.43
2023-02-18T04:23:28.135Z,7.93
2023-02-18T04:25:56.166Z,15.07
2023-02-18T04:28:24.283Z,10.85
2023-02-18T04:30:52.227Z,13.00
2023-02-18T04:33:20.609Z,12.40
2023-02-18T04:35:48.645Z,14.80
2023-02-18T04:38:16.877Z,11.38
2023-02-18T04:40:45.907Z,18.75
2023-02-18T04:43:13.930Z,14.48
2023-02-18T04:45:41.881Z,13.43
2023-02-18T04:48:09.877Z,16.02
2023-02-18T04:50:39.194Z,11.35
2023-02-18T04:53:07.114Z,15.98
2023-02-18T04:55:37.535Z,14.07
2023-02-18T04:58:05.781Z,12.70
2023-02-18T05:00:34.010Z,12.25
2023-02-18T05:03:01.985Z,14.23
2023-02-18T05:05:29.942Z,9.50
2023-02-18T05:07:58.073Z,7.80
2023-02-18T05:10:26.119Z,16.20
2023-02-18T05:12:54.137Z,17.27
2023-02-18T05:15:22.037Z,13.80
2023-02-18T05:17:50.117Z,14.10
2023-02-18T05:20:18.189Z,14.60
2023-02-18T05:22:46.857Z,17.98
2023-02-18T05:25:14.909Z,17.50
2023-02-18T05:27:43.432Z,16.05
2023-02-18T05:30:11.896Z,10.90
2023-02-18T05:32:40.068Z,13.35
2023-02-18T05:35:08.794Z,10.70
2023-02-18T05:37:39.388Z,15.30
2023-02-18T05:40:08.217Z,14.93
2023-02-18T05:42:37.401Z,9.80
2023-02-18T05:45:05.969Z,11.27
2023-02-18T05:47:34.068Z,8.55
2023-02-18T05:50:02.503Z,14.50
2023-02-18T05:52:30.547Z,13.63
2023-02-18T05:54:58.526Z,12.98
2023-02-18T05:57:26.553Z,11.85
2023-02-18T05:59:54.816Z,14.10
2023-02-18T06:02:23.175Z,15.02
2023-02-18T06:04:51.309Z,14.63
2023-02-18T06:07:20.778Z,9.63
2023-02-18T06:09:49.169Z,14.50
2023-02-18T06:12:17.649Z,11.20
2023-02-18T06:14:46.303Z,13.35
2023-02-18T06:17:15.604Z,15.60
2023-02-18T06:19:44.958Z,12.20
2023-02-18T06:22:14.198Z,15.45
2023-02-18T06:24:42.519Z,13.40
2023-02-18T06:27:11.302Z,10.85
2023-02-18T06:29:39.762Z,14.25
2023-02-18T06:32:08.487Z,13.32
2023-02-18T06:34:37.421Z,9.88
2023-02-18T06:37:06.375Z,10.38
2023-02-18T06:39:34.844Z,10.73
2023-02-18T06:42:03.629Z,9.45
2023-02-18T06:44:32.123Z,10.27
2023-02-18T06:47:00.873Z,11.85
2023-02-18T06:49:30.641Z,8.15
2023-02-18T06:51:59.187Z,9.77
2023-02-18T06:54:28.204Z,13.35
2023-02-18T06:56:58.843Z,10.25
2023-02-18T06:59:27.385Z,11.73
2023-02-18T07:01:56.030Z,13.00
2023-02-18T07:04:24.078Z,12.10
2023-02-18T07:06:51.991Z,14.23
2023-02-18T07:09:20.608Z,10.05
2023-02-18T07:11:51.850Z,12.80
2023-02-18T07:14:20.199Z,13.90
2023-02-18T07:16:50.869Z,15.60
2023-02-18T07:19:19.065Z,13.00
2023-02-18T07:21:47.528Z,17.55
2023-02-18T07:24:15.765Z,11.98
2023-02-18T07:26:43.999Z,15.70
2023-02-18T07:29:12.125Z,13.07
2023-02-18T07:31:40.629Z,17.52
2023-02-18T07:34:08.923Z,15.10
2023-02-18T07:36:40.136Z,10.75
2023-02-18T07:39:08.695Z,14.43
2023-02-18T07:41:38.658Z,13.18
2023-02-18T07:44:15.500Z,10.98
2023-02-18T07:46:43.924Z,14.63
2023-02-18T07:49:12.293Z,16.70
2023-02-18T07:51:41.124Z,11.98
2023-02-18T07:54:09.398Z,16.30
2023-02-18T07:56:38.572Z,9.77
2023-02-18T07:59:07.507Z,16.95
2023-02-18T08:01:36.088Z,13.65
2023-02-18T08:04:05.278Z,16.67
2023-02-18T08:06:41.065Z,16.35
2023-02-18T08:09:09.278Z,16.00
2023-02-18T08:11:38.870Z,14.85
2023-02-18T08:14:07.530Z,12.93
2023-02-18T08:16:35.958Z,15.82
2023-02-18T08:19:04.419Z,12.38
2023-02-18T08:21:33.037Z,14.80
2023-02-18T08:24:01.835Z,17.00
2023-02-18T08:26:30.244Z,17.70
2023-02-18T08:28:58.343Z,21.10
2023-02-18T08:31:29.877Z,20.85
2023-02-18T08:36:29.506Z,15.15
2023-02-18T08:38:58.577Z,15.82
2023-02-18T08:41:26.808Z,13.25
2023-02-18T08:43:54.852Z,17.73
2023-02-18T08:46:24.995Z,17.02
2023-02-18T08:48:53.889Z,14.50
2023-02-18T08:51:23.610Z,17.88
2023-02-18T08:53:51.687Z,25.75
2023-02-18T08:56:21.147Z,16.52
2023-02-18T08:58:49.273Z,16.85
2023-02-18T09:01:17.706Z,12.98
2023-02-18T09:03:46.121Z,18.20
2023-02-18T09:06:14.145Z,12.32
2023-02-18T09:08:42.256Z,15.77
2023-02-18T09:11:12.163Z,15.15
2023-02-18T09:13:40.953Z,17.50
2023-02-18T09:16:21.261Z,15.05
2023-02-18T09:18:50.319Z,16.05
2023-02-18T09:21:20.889Z,20.27
2023-02-18T09:23:50.241Z,18.10
2023-02-18T09:26:23.234Z,15.05
2023-02-18T09:28:53.133Z,19.80
2023-02-18T09:31:25.210Z,20.38
2023-02-18T09:34:00.740Z,23.05
2023-02-18T09:36:29.756Z,21.00
2023-02-18T09:38:57.998Z,11.57
2023-02-18T09:41:50.326Z,13.57
2023-02-18T09:44:37.885Z,15.85
2023-02-18T09:47:16.969Z,14.77
2023-02-18T09:49:57.674Z,14.82
2023-02-18T09:52:34.018Z,15.55
2023-02-18T09:55:32.286Z,17.23
2023-02-18T09:58:06.100Z,19.45
2023-02-18T10:00:40.762Z,18.02
2023-02-18T10:03:24.504Z,16.08
2023-02-18T10:06:08.870Z,14.32
2023-02-18T10:08:44.984Z,11.18
2023-02-18T10:11:41.621Z,13.80
2023-02-18T10:14:15.318Z,16.38
2023-02-18T10:16:46.529Z,18.60
2023-02-18T10:19:28.724Z,14.63
2023-02-18T10:21:57.827Z,23.13
2023-02-18T10:24:50.870Z,19.00
2023-02-18T10:27:41.187Z,22.33
2023-02-18T10:30:31.526Z,20.10
2023-02-18T10:33:30.361Z,18.58
2023-02-18T10:36:27.091Z,22.40
2023-02-18T10:39:39.942Z,29.17
2023-02-18T10:42:30.550Z,20.40
2023-02-18T10:45:46.932Z,21.65
2023-02-18T10:48:40.046Z,20.15
2023-02-18T10:51:29.875Z,26.85
2023-02-18T10:53:58.631Z,24.00
2023-02-18T10:56:48.387Z,19.88
2023-02-18T10:59:32.691Z,27.67
2023-02-18T11:02:14.234Z,29.13
2023-02-18T11:04:46.404Z,33.42
2023-02-18T11:07:33.210Z,25.30
2023-02-18T11:10:19.552Z,28.20
2023-02-18T11:12:53.173Z,29.00
2023-02-18T11:15:27.648Z,27.23
2023-02-18T11:18:30.414Z,31.38
2023-02-18T11:21:38.747Z,22.80
2023-02-18T11:24:17.013Z,26.23
2023-02-18T11:26:45.245Z,26.98
2023-02-18T11:29:24.311Z,26.17
2023-02-18T11:31:57.301Z,30.83
2023-02-18T11:34:33.256Z,24.08
2023-02-18T11:37:21.151Z,25.35
2023-02-18T11:39:55.532Z,31.27
2023-02-18T11:42:27.175Z,17.92
2023-02-18T11:45:39.902Z,32.10
2023-02-18T11:48:43.438Z,33.88
2023-02-18T11:51:28.841Z,40.40
2023-02-18T11:54:06.750Z,27.67
2023-02-18T11:56:38.478Z,38.78
2023-02-18T11:59:18.392Z,32.28
2023-02-18T12:06:03.150Z,40.33
2023-02-18T12:09:31.903Z,31.10
2023-02-18T12:13:02.868Z,28.27
2023-02-18T12:16:02.082Z,36.67
2023-02-18T12:19:10.679Z,43.90
2023-02-18T12:22:35.948Z,45.90
2023-02-18T12:25:26.577Z,34.83
2023-02-18T12:28:15.811Z,42.42
2023-02-18T12:31:18.666Z,47.15
2023-02-18T12:34:12.952Z,43.20
2023-02-18T12:37:20.522Z,37.53
2023-02-18T12:40:16.635Z,46.90
2023-02-18T12:42:45.046Z,40.22
2023-02-18T12:45:49.912Z,30.55
2023-02-18T12:49:05.323Z,30.55
2023-02-18T12:52:05.194Z,30.67
2023-02-18T12:54:50.783Z,32.58
2023-02-18T12:57:54.028Z,32.25
2023-02-18T13:01:06.697Z,30.50
2023-02-18T13:04:13.416Z,30.15
2023-02-18T13:07:35.687Z,37.88
2023-02-18T13:10:56.354Z,37.97
2023-02-18T13:13:40.146Z,21.67
2023-02-18T13:16:16.326Z,24.88
2023-02-18T13:19:18.738Z,43.33
2023-02-18T13:21:52.086Z,40.33
2023-02-18T13:24:43.776Z,40.22
2023-02-18T13:27:22.670Z,41.40
2023-02-18T13:30:37.855Z,41.20
2023-02-18T13:33:53.422Z,34.85
2023-02-18T13:37:05.974Z,27.88
2023-02-18T13:39:35.714Z,36.20
2023-02-18T13:42:37.006Z,31.17
2023-02-18T13:45:23.535Z,31.83
2023-02-18T13:47:52.741Z,41.33
2023-02-18T13:50:30.062Z,29.35
2023-02-18T13:53:10.107Z,26.10
2023-02-18T13:56:09.646Z,52.67
2023-02-18T13:58:55.570Z,23.80
2023-02-18T14:01:45.420Z,30.08
2023-02-18T14:04:45.577Z,29.80
2023-02-18T14:07:25.551Z,26.75
2023-02-18T14:10:00.005Z,39.35
2023-02-18T14:12:42.365Z,35.05
2023-02-18T14:15:30.943Z,31.50
2023-02-18T14:18:14.125Z,25.20
2023-02-18T14:20:51.588Z,40.17
2023-02-18T14:23:19.571Z,24.00
2023-02-18T14:26:16.504Z,36.00
2023-02-18T14:28:49.167Z,36.60
2023-02-18T14:31:52.049Z,31.42
2023-02-18T14:35:06.765Z,26.67
2023-02-18T14:37:55.810Z,24.10
2023-02-18T14:41:01.651Z,24.08
2023-02-18T14:43:53.062Z,24.40
2023-02-18T14:46:33.709Z,25.85
2023-02-18T14:49:39.460Z,21.52
2023-02-18T14:52:36.949Z,26.77
2023-02-18T14:55:08.719Z,21.38
2023-02-18T15:00:40.877Z,25.95
2023-02-18T15:03:23.040Z,27.15
2023-02-18T15:05:52.585Z,36.83
2023-02-18T15:08:26.196Z,25.70
2023-02-18T15:11:07.135Z,32.55
2023-02-18T15:13:44.527Z,22.97
2023-02-18T15:16:34.107Z,17.75
2023-02-18T15:19:19.301Z,17.98
2023-02-18T15:21:52.204Z,32.67
2023-02-18T15:24:37.458Z,23.45
2023-02-18T15:27:22.157Z,26.67
2023-02-18T15:29:57.000Z,32.35
2023-02-18T15:32:29.676Z,25.23
2023-02-18T15:35:05.243Z,18.48
2023-02-18T15:37:34.005Z,19.02
2023-02-18T15:40:02.302Z,25.27
2023-02-18T15:42:33.529Z,21.73
2023-02-18T15:45:35.713Z,22.40
2023-02-18T15:50:38.256Z,20.65
2023-02-18T15:53:15.022Z,24.55
2023-02-18T15:55:48.694Z,27.10
2023-02-18T15:58:33.321Z,18.23
2023-02-18T16:01:08.671Z,20.33
2023-02-18T16:03:40.047Z,20.45
2023-02-18T16:06:18.213Z,23.67
2023-02-18T16:09:07.039Z,25.45
2023-02-18T16:12:02.531Z,20.10
2023-02-18T16:14:55.054Z,21.95
2023-02-18T16:17:27.011Z,19.25
2023-02-18T16:20:19.170Z,35.38
2023-02-18T16:22:53.804Z,33.55
2023-02-18T16:25:26.922Z,34.15
2023-02-18T16:27:59.807Z,38.80
2023-02-18T16:30:31.483Z,25.88
2023-02-18T16:33:01.091Z,22.10
2023-02-18T16:35:43.989Z,21.20
2023-02-18T16:38:24.692Z,21.48
2023-02-18T16:40:55.089Z,31.17
2023-02-18T16:43:29.439Z,21.98
2023-02-18T16:46:06.730Z,20.38
2023-02-18T16:48:41.385Z,16.67
2023-02-18T16:51:22.545Z,20.80
2023-02-18T16:53:51.904Z,32.85
2023-02-18T16:56:24.957Z,22.10
2023-02-18T16:58:53.636Z,41.38
2023-02-18T17:01:27.684Z,26.77
2023-02-18T17:04:00.877Z,26.95
2023-02-18T17:06:30.458Z,44.50
2023-02-18T17:08:59.621Z,29.27
2023-02-18T17:11:35.861Z,33.17
2023-02-18T17:14:06.330Z,24.95
2023-02-18T17:16:35.122Z,26.63
2023-02-18T17:19:03.931Z,28.85
2023-02-18T17:21:32.453Z,25.55
2023-02-18T17:24:00.670Z,23.98
2023-02-18T17:26:30.832Z,28.83
2023-02-18T17:29:00.959Z,24.45
2023-02-18T17:31:34.700Z,23.98
2023-02-18T17:34:08.148Z,24.20
2023-02-18T17:36:45.870Z,15.63
2023-02-18T17:39:17.744Z,20.65
2023-02-18T17:41:47.691Z,27.65
2023-02-18T17:44:25.204Z,15.48
2023-02-18T17:46:55.173Z,30.13
2023-02-18T17:49:24.153Z,20.30
2023-02-18T17:51:52.860Z,27.70
2023-02-18T17:54:23.342Z,18.52
2023-02-18T17:56:51.884Z,27.13
2023-02-18T17:59:21.040Z,18.13
2023-02-18T18:01:49.345Z,36.63
2023-02-18T18:04:19.595Z,15.05
2023-02-18T18:06:49.901Z,31.05
2023-02-18T18:09:18.389Z,23.00
2023-02-18T18:11:46.846Z,31.05
2023-02-18T18:14:15.584Z,19.35
2023-02-18T18:16:45.149Z,27.83
2023-02-18T18:19:13.313Z,20.67
2023-02-18T18:21:41.697Z,25.55
2023-02-18T18:24:13.187Z,28.10
2023-02-18T18:26:41.311Z,22.85
2023-02-18T18:29:09.490Z,20.55
2023-02-18T18:31:38.111Z,25.73
2023-02-18T18:34:06.199Z,23.15
2023-02-18T18:36:34.162Z,22.50
2023-02-18T18:39:02.997Z,19.42
2023-02-18T18:41:31.317Z,24.27
2023-02-18T18:43:59.510Z,20.27
2023-02-18T18:46:29.544Z,19.25
2023-02-18T18:48:57.670Z,19.88
2023-02-18T18:51:31.455Z,15.90
2023-02-18T18:53:59.847Z,19.33
2023-02-18T18:56:28.189Z,18.95
2023-02-18T18:58:57.159Z,25.13
2023-02-18T19:01:27.655Z,17.92
2023-02-18T19:03:55.851Z,22.35
2023-02-18T19:06:24.277Z,23.48
2023-02-18T19:08:52.543Z,30.88
2023-02-18T19:11:20.810Z,23.95
2023-02-18T19:13:49.635Z,25.48
2023-02-18T19:16:39.720Z,20.60
2023-02-18T19:19:10.969Z,17.83
2023-02-18T19:21:40.402Z,20.73
2023-02-18T19:24:09.669Z,23.02
2023-02-18T19:26:37.903Z,16.75
2023-02-18T19:29:08.810Z,23.30
2023-02-18T19:31:37.675Z,22.52
2023-02-18T19:34:05.855Z,31.85
2023-02-18T19:36:33.886Z,22.75
2023-02-18T19:39:02.478Z,14.75
2023-02-18T19:41:31.351Z,17.02
2023-02-18T19:43:59.463Z,18.23
2023-02-18T19:46:31.979Z,17.13
2023-02-18T19:48:59.998Z,17.98
2023-02-18T19:51:28.226Z,19.52
2023-02-18T19:53:56.345Z,21.60
2023-02-18T19:56:25.205Z,21.15
2023-02-18T19:58:56.663Z,27.15
2023-02-18T20:01:25.401Z,19.92
2023-02-18T20:03:53.927Z,21.52
2023-02-18T20:06:22.592Z,14.73
2023-02-18T20:08:51.707Z,55.25
2023-02-18T20:11:21.908Z,43.58
2023-02-18T20:13:50.148Z,36.58
2023-02-18T20:16:18.745Z,30.90
2023-02-18T20:18:46.936Z,36.20
2023-02-18T20:21:15.113Z,43.92
2023-02-18T20:23:43.474Z,33.90
2023-02-18T20:26:14.884Z,36.72
2023-02-18T20:28:43.128Z,49.13
2023-02-18T20:31:13.551Z,80.00
2023-02-18T20:33:42.875Z,47.95
2023-02-18T20:36:14.645Z,36.25
2023-02-18T20:41:14.947Z,35.72
2023-02-18T20:43:43.685Z,52.35
2023-02-18T20:46:19.504Z,114.97
2023-02-18T20:48:48.494Z,39.97
2023-02-18T20:51:21.515Z,66.78
2023-02-18T20:53:50.632Z,125.97
2023-02-18T20:56:21.054Z,33.08
2023-02-18T20:59:00.038Z,72.75
2023-02-18T21:01:29.027Z,132.48
2023-02-18T21:03:57.432Z,74.05
2023-02-18T21:06:26.664Z,58.05
2023-02-18T21:08:55.178Z,250.93
2023-02-18T21:11:26.941Z,115.68
2023-02-18T21:13:57.466Z,133.77
2023-02-18T21:16:28.517Z,36.78
2023-02-18T21:18:57.294Z,80.47
2023-02-18T21:21:26.160Z,117.45
2023-02-18T21:23:54.498Z,67.72
2023-02-18T21:26:25.959Z,48.83
2023-02-18T21:28:58.610Z,33.25
2023-02-18T21:31:31.760Z,25.95
2023-02-18T21:34:01.198Z,42.60
2023-02-18T21:36:31.238Z,39.85
2023-02-18T21:39:07.228Z,30.15
2023-02-18T21:41:39.855Z,24.08
2023-02-18T21:44:10.060Z,26.02
2023-02-18T21:46:39.945Z,23.48
2023-02-18T21:49:12.954Z,21.67
2023-02-18T21:51:57.421Z,32.72
2023-02-18T21:54:48.033Z,26.15
2023-02-18T21:57:24.301Z,26.55
2023-02-18T21:59:53.610Z,30.65
2023-02-18T22:02:32.179Z,28.98
2023-02-18T22:05:09.052Z,27.05
2023-02-18T22:07:38.365Z,25.58
2023-02-18T22:10:08.089Z,25.40
2023-02-18T22:12:37.219Z,23.58
2023-02-18T22:15:06.132Z,25.42
2023-02-18T22:17:35.659Z,18.80
2023-02-18T22:20:10.092Z,23.80
2023-02-18T22:22:39.181Z,23.83
2023-02-18T22:25:08.947Z,21.55
2023-02-18T22:27:38.120Z,23.95
2023-02-18T22:30:07.437Z,23.50
2023-02-18T22:32:36.064Z,20.45
2023-02-18T22:35:05.649Z,19.30
2023-02-18T22:37:35.929Z,20.38
2023-02-18T22:40:04.751Z,19.25
2023-02-18T22:42:33.280Z,25.90
2023-02-18T22:45:03.013Z,25.25
2023-02-18T22:47:31.779Z,21.40
2023-02-18T22:50:00.462Z,22.83
2023-02-18T22:52:29.038Z,20.23
2023-02-18T22:54:57.834Z,21.60
2023-02-18T22:57:26.719Z,20.50
2023-02-18T22:59:55.357Z,22.15
2023-02-18T23:02:25.532Z,18.85
2023-02-18T23:04:54.090Z,27.95
2023-02-18T23:07:24.924Z,27.48
2023-02-18T23:09:53.787Z,35.20
2023-02-18T23:12:23.517Z,28.67
2023-02-18T23:14:53.107Z,29.80
2023-02-18T23:17:21.922Z,26.15
2023-02-18T23:19:54.687Z,38.42
2023-02-18T23:22:34.144Z,21.65
2023-02-18T23:25:03.117Z,31.40
2023-02-18T23:27:32.801Z,31.00
2023-02-18T23:30:01.467Z,25.95
2023-02-18T23:32:30.862Z,30.10
2023-02-18T23:35:00.199Z,27.27
2023-02-18T23:37:47.590Z,28.70
2023-02-18T23:40:16.852Z,29.08
2023-02-18T23:42:44.831Z,34.20
2023-02-18T23:45:13.125Z,30.75
2023-02-18T23:47:41.313Z,38.45
2023-02-18T23:50:09.549Z,30.60
2023-02-18T23:56:40.622Z,23.30
2023-02-18T23:59:10.371Z,26.70
